Time;durP1;ratioP1;P1;durP2;ratioP2;P2;SDS_P1;SDS_P2;PMS_P1;PMS_P2;Temp;Humidity;BMP_temperature;BMP_pressure;BME280_temperature;BME280_humidity;BME280_pressure;Samples;Min_cycle;Max_cycle;Signal;HPM_P1;HPM_P2
2021/12/28 00:00:00;;;;;;;49.67;19.83;;;;;;;;;;4861040;29;20242;-86
2021/12/28 00:02:26;;;;;;;47.10;16.23;;;;;;;;;;4861671;29;20187;-86
2021/12/28 00:04:52;;;;;;;44.47;18.70;;;;;;;;;;4845672;29;20667;-85
2021/12/28 00:07:18;;;;;;;45.90;19.50;;;;;;;;;;4846264;29;20197;-86
2021/12/28 00:09:44;;;;;;;37.70;15.93;;;;;;;;;;4862685;29;20217;-87
2021/12/28 00:12:10;;;;;;;34.53;17.43;;;-5.10;99.90;;;;;;4861623;29;20194;-86
2021/12/28 00:14:38;;;;;;;31.87;14.43;;;;;;;;;;4861365;29;20190;-87
2021/12/28 00:19:48;;;;;;;32.60;15.37;;;;;;;;;;4861986;29;20663;-86
2021/12/28 00:22:14;;;;;;;37.40;15.93;;;;;;;;;;4861826;29;20194;-86
2021/12/28 00:24:42;;;;;;;34.60;15.00;;;;;;;;;;4862629;29;20200;-86
2021/12/28 00:27:08;;;;;;;43.10;16.00;;;;;;;;;;4861334;29;20181;-86
2021/12/28 00:29:34;;;;;;;47.73;17.10;;;;;;;;;;4862312;29;20213;-86
2021/12/28 00:32:00;;;;;;;47.87;18.67;;;;;;;;;;4845609;29;20289;-86
2021/12/28 00:34:26;;;;;;;39.30;16.43;;;;;;;;;;4861083;29;20198;-86
2021/12/28 00:36:52;;;;;;;48.67;17.40;;;;;;;;;;4860833;29;20191;-86
2021/12/28 00:39:18;;;;;;;61.60;21.77;;;;;;;;;;4860788;29;20191;-85
2021/12/28 00:41:44;;;;;;;36.93;15.77;;;;;;;;;;4845474;29;20198;-86
2021/12/28 00:44:10;;;;;;;46.23;18.43;;;;;;;;;;4845251;29;20574;-86
2021/12/28 00:46:36;;;;;;;35.97;15.93;;;;;;;;;;4861968;29;20219;-87
2021/12/28 00:49:02;;;;;;;43.63;15.40;;;;;;;;;;4863945;29;20209;-86
2021/12/28 00:51:28;;;;;;;29.93;14.33;;;;;;;;;;4864848;29;20218;-86
2021/12/28 00:53:54;;;;;;;32.87;15.10;;;;;;;;;;4862155;29;20600;-87
2021/12/28 00:56:21;;;;;;;34.90;15.03;;;;;;;;;;4845089;29;20198;-86
2021/12/28 00:58:47;;;;;;;33.80;14.43;;;;;;;;;;4860154;29;20201;-86
2021/12/28 01:01:15;;;;;;;33.20;17.10;;;;;;;;;;4865139;29;20201;-85
2021/12/28 01:03:41;;;;;;;45.70;18.80;;;;;;;;;;4863886;29;20250;-87
2021/12/28 01:06:07;;;;;;;37.73;14.87;;;;;;;;;;4881167;29;20704;-86
2021/12/28 01:08:33;;;;;;;34.80;15.37;;;;;;;;;;4878937;29;20211;-86
2021/12/28 01:11:00;;;;;;;35.23;16.17;;;;;;;;;;4865841;29;20604;-86
2021/12/28 01:13:26;;;;;;;35.77;13.87;;;;;;;;;;4860415;29;20243;-86
2021/12/28 01:15:53;;;;;;;38.27;15.67;;;;;;;;;;4859247;29;20217;-87
2021/12/28 01:18:19;;;;;;;37.93;12.47;;;-4.90;99.90;;;;;;4860220;29;20199;-86
2021/12/28 01:20:45;;;;;;;34.37;14.77;;;;;;;;;;4861339;29;20695;-86
2021/12/28 01:23:12;;;;;;;36.97;15.87;;;;;;;;;;4861216;29;20553;-86
2021/12/28 01:25:38;;;;;;;28.60;13.47;;;;;;;;;;4861618;29;20234;-85
2021/12/28 01:28:05;;;;;;;31.60;15.20;;;-4.80;99.90;;;;;;4844600;29;20193;-86
2021/12/28 01:30:31;;;;;;;34.93;15.33;;;;;;;;;;4859878;29;20266;-86
2021/12/28 01:32:59;;;;;;;32.97;14.67;;;;;;;;;;4859832;29;20187;-86
2021/12/28 01:35:26;;;;;;;36.33;16.37;;;-5.00;99.90;;;;;;4845008;29;20203;-86
2021/12/28 01:37:52;;;;;;;37.60;16.10;;;;;;;;;;4861236;29;20183;-86
2021/12/28 01:40:23;;;;;;;34.73;15.07;;;-5.00;99.90;;;;;;4860891;29;20651;-86
2021/12/28 01:42:55;;;;;;;31.13;14.33;;;-5.00;99.90;;;;;;4859677;29;20249;-86
2021/12/28 01:45:38;;;;;;;26.53;13.07;;;-5.10;99.90;;;;;;4844849;29;20201;-87
2021/12/28 01:48:05;;;;;;;32.20;14.27;;;-5.10;99.90;;;;;;4859804;29;20242;-85
2021/12/28 01:50:31;;;;;;;30.53;14.37;;;;;;;;;;4859828;29;20224;-86
2021/12/28 01:52:58;;;;;;;27.73;14.13;;;;;;;;;;4860661;29;20339;-87
2021/12/28 01:55:24;;;;;;;28.33;13.33;;;;;;;;;;4859933;29;20191;-86
2021/12/28 01:57:50;;;;;;;26.90;14.20;;;;;;;;;;4859712;29;20213;-86
2021/12/28 02:00:17;;;;;;;37.00;15.10;;;-5.30;99.90;;;;;;4860709;29;20731;-86
2021/12/28 02:02:43;;;;;;;29.97;13.77;;;;;;;;;;4859808;29;20653;-85
2021/12/28 02:05:09;;;;;;;28.07;14.30;;;;;;;;;;4860884;29;20194;-86
2021/12/28 02:07:35;;;;;;;27.70;13.30;;;;;;;;;;4844472;29;20548;-85
2021/12/28 02:10:01;;;;;;;29.30;13.30;;;;;;;;;;4844251;29;20215;-86
2021/12/28 02:12:30;;;;;;;32.37;14.60;;;-5.30;99.90;;;;;;4860878;29;20188;-86
2021/12/28 02:14:57;;;;;;;26.97;12.30;;;;;;;;;;4844272;29;20215;-86
2021/12/28 02:17:23;;;;;;;37.53;14.67;;;;;;;;;;4844481;29;20202;-87
2021/12/28 02:19:49;;;;;;;43.57;17.60;;;;;;;;;;4859614;29;20198;-86
2021/12/28 02:22:15;;;;;;;27.37;12.80;;;;;;;;;;4860695;29;20188;-86
2021/12/28 02:24:41;;;;;;;30.37;13.37;;;;;;;;;;4859572;29;20532;-86
2021/12/28 02:27:07;;;;;;;26.93;14.73;;;;;;;;;;4859834;29;20191;-85
2021/12/28 02:29:33;;;;;;;27.00;12.97;;;;;;;;;;4864196;29;20265;-85
2021/12/28 02:31:59;;;;;;;29.37;13.97;;;-5.40;99.90;;;;;;4864368;29;20532;-87
2021/12/28 02:34:26;;;;;;;32.07;14.87;;;-5.50;99.90;;;;;;4847589;29;20197;-84
2021/12/28 02:36:52;;;;;;;27.00;13.70;;;;;;;;;;4863139;29;20204;-85
2021/12/28 02:39:18;;;;;;;39.27;15.87;;;-5.50;99.90;;;;;;4864168;29;20192;-86
2021/12/28 02:41:45;;;;;;;36.57;15.43;;;-5.50;99.90;;;;;;4863008;29;20196;-85
2021/12/28 02:44:11;;;;;;;29.70;14.13;;;;;;;;;;4863624;29;20188;-86
2021/12/28 02:46:37;;;;;;;28.40;13.80;;;;;;;;;;4862824;29;20189;-85
2021/12/28 02:49:04;;;;;;;31.90;12.60;;;;;;;;;;4863706;29;20671;-86
2021/12/28 02:51:30;;;;;;;23.63;11.70;;;;;;;;;;4863791;29;20193;-85
2021/12/28 02:53:56;;;;;;;28.03;12.47;;;;;;;;;;4862297;29;20185;-85
2021/12/28 02:56:22;;;;;;;33.33;13.07;;;;;;;;;;4862448;29;20345;-85
2021/12/28 02:58:51;;;;;;;32.83;13.27;;;-5.60;99.90;;;;;;4862185;29;20190;-86
2021/12/28 03:01:27;;;;;;;26.77;12.50;;;-5.60;99.90;;;;;;4863617;29;20172;-85
2021/12/28 03:03:56;;;;;;;28.17;12.57;;;-5.60;99.90;;;;;;4862612;29;20194;-85
2021/12/28 03:06:23;;;;;;;25.27;12.63;;;-5.60;99.90;;;;;;4863550;29;20185;-85
2021/12/28 03:08:53;;;;;;;27.40;13.63;;;-5.60;99.90;;;;;;4863483;29;20189;-85
2021/12/28 03:11:19;;;;;;;26.47;12.57;;;;;;;;;;4863455;29;20255;-86
2021/12/28 03:13:51;;;;;;;25.20;11.80;;;-5.00;99.90;;;;;;4862491;29;20217;-86
2021/12/28 03:16:20;;;;;;;28.73;12.57;;;-5.60;99.90;;;;;;4863373;29;20649;-86
2021/12/28 03:18:46;;;;;;;26.03;12.63;;;;;;;;;;4862435;29;20668;-85
2021/12/28 03:21:15;;;;;;;25.43;12.23;;;-5.60;99.90;;;;;;4846721;29;20198;-86
2021/12/28 03:23:41;;;;;;;23.90;12.43;;;;;;;;;;4863482;29;20185;-86
2021/12/28 03:26:08;;;;;;;23.23;12.13;;;-5.70;99.90;;;;;;4846715;29;20577;-88
2021/12/28 03:28:38;;;;;;;23.53;11.73;;;-5.70;99.90;;;;;;4846575;29;20708;-86
2021/12/28 03:31:07;;;;;;;29.80;13.33;;;-5.70;99.90;;;;;;4862997;29;20185;-86
2021/12/28 03:33:35;;;;;;;25.70;13.13;;;-5.70;99.90;;;;;;4861867;29;20192;-86
2021/12/28 03:36:01;;;;;;;27.33;13.90;;;-5.70;99.90;;;;;;4861841;29;20189;-86
2021/12/28 03:38:27;;;;;;;28.43;13.50;;;;;;;;;;4861076;29;20744;-85
2021/12/28 03:40:54;;;;;;;29.10;13.23;;;-5.80;99.90;;;;;;4861300;29;20244;-86
2021/12/28 03:43:21;;;;;;;37.30;16.13;;;-5.90;99.90;;;;;;4861924;29;20189;-86
2021/12/28 03:45:47;;;;;;;29.27;13.47;;;;;;;;;;4861753;29;20196;-86
2021/12/28 03:48:13;;;;;;;31.97;13.67;;;;;;;;;;4862472;29;20211;-86
2021/12/28 03:50:39;;;;;;;30.23;12.83;;;;;;;;;;4861450;29;20219;-85
2021/12/28 03:53:06;;;;;;;33.13;14.13;;;-5.90;99.90;;;;;;4861945;29;20204;-85
2021/12/28 03:55:33;;;;;;;30.63;13.90;;;-5.90;99.90;;;;;;4845951;29;20204;-86
2021/12/28 03:58:00;;;;;;;26.87;13.30;;;-6.00;99.90;;;;;;4861577;29;20203;-87
2021/12/28 04:00:29;;;;;;;30.63;11.80;;;-6.10;99.90;;;;;;4845563;29;20238;-87
2021/12/28 04:02:55;;;;;;;21.23;11.97;;;;;;;;;;4863046;29;20212;-86
2021/12/28 04:05:21;;;;;;;27.83;14.60;;;;;;;;;;4846008;29;20548;-88
2021/12/28 04:07:48;;;;;;;30.37;14.57;;;;;;;;;;4861561;29;20194;-87
2021/12/28 04:10:16;;;;;;;29.83;13.97;;;;;;;;;;4861246;29;20667;-89
2021/12/28 04:12:42;;;;;;;26.67;13.83;;;;;;;;;;4861424;29;20191;-89
2021/12/28 04:15:10;;;;;;;25.60;13.33;;;-6.00;99.90;;;;;;4861345;29;20194;-88
2021/12/28 04:17:37;;;;;;;28.67;14.73;;;;;;;;;;4864732;29;20191;-88
2021/12/28 04:20:12;;;;;;;20.40;11.57;;;-6.00;99.90;;;;;;4855327;29;20256;-86
2021/12/28 04:22:38;;;;;;;28.63;13.60;;;;;;;;;;4875133;29;20224;-85
2021/12/28 04:25:05;;;;;;;30.40;13.60;;;-6.00;99.90;;;;;;4876098;29;20194;-86
2021/12/28 04:27:31;;;;;;;31.07;12.57;;;;;;;;;;4876481;29;20187;-88
2021/12/28 04:29:57;;;;;;;36.73;15.77;;;;;;;;;;4877237;29;20310;-90
2021/12/28 04:32:24;;;;;;;25.47;13.80;;;;;;;;;;4876608;29;20665;-86
2021/12/28 04:34:50;;;;;;;32.87;14.57;;;;;;;;;;4859952;29;20302;-86
2021/12/28 04:37:16;;;;;;;29.57;12.70;;;;;;;;;;4873739;29;20188;-87
2021/12/28 04:39:42;;;;;;;30.90;15.17;;;;;;;;;;4863635;29;20196;-86
2021/12/28 04:42:08;;;;;;;28.87;15.20;;;-6.00;99.90;;;;;;4861899;29;20668;-87
2021/12/28 04:44:34;;;;;;;47.07;23.27;;;;;;;;;;4860474;29;20214;-86
2021/12/28 04:47:00;;;;;;;39.27;16.63;;;;;;;;;;4860419;29;20192;-87
2021/12/28 04:49:28;;;;;;;46.10;20.13;;;;;;;;;;4845010;29;20228;-87
2021/12/28 04:51:54;;;;;;;30.10;15.13;;;;;;;;;;4860374;29;20198;-87
2021/12/28 04:54:23;;;;;;;46.30;17.90;;;-6.20;99.90;;;;;;4861566;29;20631;-88
2021/12/28 04:56:49;;;;;;;37.00;17.13;;;-6.20;99.90;;;;;;4861721;29;20191;-87
2021/12/28 04:59:16;;;;;;;30.50;14.57;;;-6.20;99.90;;;;;;4860397;29;20233;-87
2021/12/28 05:01:42;;;;;;;26.77;13.20;;;;;;;;;;4830277;29;20296;-88
2021/12/28 05:04:08;;;;;;;31.47;15.70;;;;;;;;;;4862022;29;20190;-87
2021/12/28 05:06:35;;;;;;;44.80;19.53;;;-6.20;99.90;;;;;;4861637;29;20673;-87
2021/12/28 05:09:04;;;;;;;34.13;14.97;;;-6.20;99.90;;;;;;4860682;29;20219;-87
2021/12/28 05:11:32;;;;;;;29.43;14.73;;;-6.20;99.90;;;;;;4861941;29;20193;-88
2021/12/28 05:13:58;;;;;;;37.13;15.40;;;;;;;;;;4845412;29;20509;-86
2021/12/28 05:16:28;;;;;;;32.77;14.27;;;;;;;;;;4860613;29;20199;-87
2021/12/28 05:18:54;;;;;;;37.63;16.90;;;;;;;;;;4860365;29;20646;-86
2021/12/28 05:21:20;;;;;;;37.57;15.27;;;;;;;;;;4860203;29;20204;-87
2021/12/28 05:23:46;;;;;;;29.67;13.10;;;;;;;;;;4860226;29;20193;-87
2021/12/28 05:26:12;;;;;;;29.30;14.50;;;;;;;;;;4845099;29;20582;-85
2021/12/28 05:28:38;;;;;;;37.80;17.80;;;;;;;;;;4861570;29;20180;-85
2021/12/28 05:31:04;;;;;;;30.10;14.43;;;;;;;;;;4861914;29;20191;-86
2021/12/28 05:33:30;;;;;;;33.70;16.00;;;;;;;;;;4860338;29;20204;-87
2021/12/28 05:35:56;;;;;;;32.40;16.20;;;;;;;;;;4860858;29;20273;-86
2021/12/28 05:38:22;;;;;;;33.93;16.97;;;;;;;;;;4860404;29;20199;-89
2021/12/28 05:40:49;;;;;;;31.03;15.80;;;;;;;;;;4861457;29;20188;-87
2021/12/28 05:43:15;;;;;;;29.90;13.13;;;;;;;;;;4860414;29;20218;-87
2021/12/28 05:45:42;;;;;;;32.60;14.97;;;-6.20;99.90;;;;;;4859780;29;20198;-88
2021/12/28 05:48:08;;;;;;;32.50;14.93;;;;;;;;;;4874098;29;20172;-88
2021/12/28 05:50:34;;;;;;;24.63;13.23;;;;;;;;;;4883879;29;20298;-85
2021/12/28 05:53:00;;;;;;;23.50;13.47;;;;;;;;;;4883899;29;20214;-87
2021/12/28 05:55:26;;;;;;;29.27;14.23;;;;;;;;;;4868764;29;20173;-92
2021/12/28 05:57:52;;;;;;;32.03;14.93;;;;;;;;;;4884206;29;20185;-86
2021/12/28 06:00:18;;;;;;;36.33;17.07;;;;;;;;;;4884382;29;20259;-88
2021/12/28 06:02:45;;;;;;;41.50;19.33;;;;;;;;;;4885390;29;20180;-86
2021/12/28 06:05:11;;;;;;;48.17;20.00;;;;;;;;;;4888364;29;20230;-86
2021/12/28 06:07:37;;;;;;;50.80;20.50;;;;;;;;;;4887603;29;20183;-86
2021/12/28 06:10:05;;;;;;;37.23;16.13;;;-6.00;99.90;;;;;;4887449;29;20281;-87
2021/12/28 06:12:31;;;;;;;46.20;19.27;;;;;;;;;;4887528;29;20175;-92
2021/12/28 06:14:57;;;;;;;45.50;18.87;;;;;;;;;;4872211;29;20180;-85
2021/12/28 06:17:23;;;;;;;39.53;16.13;;;;;;;;;;4887666;29;20181;-89
2021/12/28 06:19:50;;;;;;;35.90;15.47;;;;;;;;;;4871720;29;20174;-87
2021/12/28 06:22:16;;;;;;;48.40;17.57;;;;;;;;;;4872097;29;20166;-86
2021/12/28 06:24:42;;;;;;;39.73;16.47;;;;;;;;;;4887567;29;20188;-90
2021/12/28 06:27:08;;;;;;;46.83;15.93;;;;;;;;;;4872800;29;20166;-89
2021/12/28 06:29:34;;;;;;;40.20;16.30;;;;;;;;;;4883961;29;20221;-86
2021/12/28 06:32:00;;;;;;;39.57;15.83;;;-5.60;99.90;;;;;;4862911;29;20199;-85
2021/12/28 06:34:26;;;;;;;39.00;16.37;;;;;;;;;;4862776;29;20190;-87
2021/12/28 06:36:52;;;;;;;36.73;16.53;;;;;;;;;;4862364;29;20250;-86
2021/12/28 06:39:18;;;;;;;37.70;16.10;;;;;;;;;;4863921;29;20182;-84
2021/12/28 06:41:44;;;;;;;30.53;13.87;;;;;;;;;;4862655;29;20266;-86
2021/12/28 06:44:10;;;;;;;35.67;16.90;;;;;;;;;;4862797;29;20628;-86
2021/12/28 06:46:37;;;;;;;37.70;17.10;;;-5.50;99.90;;;;;;4863610;29;20187;-86
2021/12/28 06:49:04;;;;;;;39.20;15.17;;;;;;;;;;4863890;29;20214;-86
2021/12/28 06:51:30;;;;;;;27.77;12.90;;;;;;;;;;4862784;29;20193;-86
2021/12/28 06:53:56;;;;;;;29.40;14.80;;;;;;;;;;4862735;29;20188;-88
2021/12/28 06:56:22;;;;;;;36.87;15.43;;;;;;;;;;4863814;29;20178;-85
2021/12/28 06:58:48;;;;;;;28.43;13.73;;;;;;;;;;4863007;29;20295;-88
2021/12/28 07:01:14;;;;;;;30.50;14.33;;;;;;;;;;4863803;29;20185;-86
2021/12/28 07:03:40;;;;;;;42.73;15.33;;;;;;;;;;4862135;29;20219;-85
2021/12/28 07:06:07;;;;;;;29.73;13.87;;;;;;;;;;4863422;29;20235;-84
2021/12/28 07:08:36;;;;;;;33.27;13.73;;;-5.30;99.90;;;;;;4863787;29;20186;-86
2021/12/28 07:11:03;;;;;;;29.00;14.30;;;-5.30;99.90;;;;;;4863172;29;20218;-85
2021/12/28 07:13:29;;;;;;;26.83;13.47;;;;;;;;;;4865698;29;20197;-87
2021/12/28 07:15:55;;;;;;;19.93;9.80;;;;;;;;;;4880355;29;20192;-88
2021/12/28 07:18:21;;;;;;;32.33;15.43;;;;;;;;;;4880616;29;20582;-86
2021/12/28 07:20:48;;;;;;;37.17;16.13;;;;;;;;;;4880555;29;20204;-87
2021/12/28 07:23:14;;;;;;;43.43;16.73;;;;;;;;;;4880501;29;21563;-86
2021/12/28 07:25:40;;;;;;;39.67;17.20;;;;;;;;;;4881626;29;20663;-86
2021/12/28 07:28:06;;;;;;;31.73;13.60;;;;;;;;;;4881577;29;20691;-87
2021/12/28 07:30:32;;;;;;;40.53;16.17;;;;;;;;;;4880585;29;20221;-86
2021/12/28 07:32:58;;;;;;;34.53;16.27;;;;;;;;;;4881110;29;20203;-87
2021/12/28 07:35:24;;;;;;;34.73;13.90;;;;;;;;;;4880397;29;20567;-87
2021/12/28 07:37:52;;;;;;;37.00;15.43;;;;;;;;;;4880040;29;20185;-86
2021/12/28 07:40:19;;;;;;;41.90;16.83;;;;;;;;;;4865602;29;20198;-94
2021/12/28 07:42:45;;;;;;;35.43;15.47;;;;;;;;;;4879787;29;20277;-88
2021/12/28 07:45:12;;;;;;;40.37;17.50;;;;;;;;;;4880144;29;20203;-83
2021/12/28 07:47:38;;;;;;;35.40;14.90;;;;;;;;;;4880201;29;20626;-86
2021/12/28 07:50:06;;;;;;;28.07;13.73;;;-5.10;99.90;;;;;;4881319;29;20213;-85
2021/12/28 07:52:32;;;;;;;34.40;15.03;;;;;;;;;;4879994;29;20678;-85
2021/12/28 07:54:58;;;;;;;36.33;14.57;;;;;;;;;;4861053;29;20201;-84
2021/12/28 07:57:24;;;;;;;33.07;14.33;;;;;;;;;;4878851;29;20276;-86
2021/12/28 07:59:50;;;;;;;43.30;17.83;;;;;;;;;;4876100;29;20244;-87
2021/12/28 08:02:16;;;;;;;60.33;21.43;;;;;;;;;;4851271;29;20191;-87
2021/12/28 08:04:42;;;;;;;32.87;14.80;;;;;;;;;;4877406;29;20193;-86
2021/12/28 08:07:08;;;;;;;79.23;25.67;;;-4.40;99.90;;;;;;4865161;29;20617;-84
2021/12/28 08:09:34;;;;;;;57.93;22.40;;;-4.40;99.90;;;;;;4869718;29;20221;-87
2021/12/28 08:12:00;;;;;;;69.43;23.40;;;;;;;;;;4866819;29;20256;-86
2021/12/28 08:14:26;;;;;;;54.03;20.30;;;;;;;;;;4868187;29;20277;-84
2021/12/28 08:16:52;;;;;;;50.10;17.97;;;;;;;;;;4875200;29;20186;-85
2021/12/28 08:19:18;;;;;;;89.57;27.50;;;;;;;;;;4880639;29;20563;-84
2021/12/28 08:21:45;;;;;;;45.53;16.80;;;-4.70;99.90;;;;;;4879510;29;20194;-89
2021/12/28 08:24:11;;;;;;;50.27;21.20;;;;;;;;;;4866816;29;20217;-86
2021/12/28 08:26:37;;;;;;;39.80;16.80;;;;;;;;;;4870148;29;20647;-92
2021/12/28 08:29:03;;;;;;;45.93;17.17;;;;;;;;;;4875764;29;20190;-85
2021/12/28 08:31:29;;;;;;;46.03;16.90;;;;;;;;;;4869513;29;20203;-85
2021/12/28 08:33:55;;;;;;;27.13;13.13;;;;;;;;;;4876354;29;20190;-85
2021/12/28 08:36:21;;;;;;;48.23;18.03;;;;;;;;;;4891096;29;20250;-85
2021/12/28 08:38:47;;;;;;;53.70;19.80;;;;;;;;;;4875450;29;20191;-87
2021/12/28 08:41:13;;;;;;;28.53;12.73;;;;;;;;;;4879816;29;20208;-86
2021/12/28 08:43:39;;;;;;;38.03;15.43;;;;;;;;;;4873736;29;20190;-86
2021/12/28 08:46:05;;;;;;;39.93;16.83;;;;;;;;;;4878555;29;20186;-86
2021/12/28 08:48:31;;;;;;;33.10;13.90;;;;;;;;;;4878912;29;20205;-87
2021/12/28 08:50:57;;;;;;;30.10;12.77;;;;;;;;;;4874943;29;20301;-86
2021/12/28 08:53:23;;;;;;;33.07;13.23;;;;;;;;;;4876657;29;20723;-86
2021/12/28 08:55:49;;;;;;;25.70;11.53;;;;;;;;;;4883494;29;20562;-86
2021/12/28 08:58:15;;;;;;;31.80;13.50;;;;;;;;;;4861462;29;20281;-86
2021/12/28 09:00:42;;;;;;;20.43;9.60;;;-4.30;99.90;;;;;;4874181;29;20293;-86
2021/12/28 09:03:08;;;;;;;25.93;12.67;;;;;;;;;;4876768;29;20198;-87
2021/12/28 09:05:37;;;;;;;35.70;16.50;;;-4.20;99.90;;;;;;4863828;29;20654;-86
2021/12/28 09:08:06;;;;;;;40.83;17.87;;;;;;;;;;4856887;29;20202;-87
2021/12/28 09:10:32;;;;;;;20.93;10.87;;;-4.20;99.90;;;;;;4873338;29;20611;-87
2021/12/28 09:12:58;;;;;;;37.30;17.10;;;;;;;;;;4855312;29;20198;-87
2021/12/28 09:15:24;;;;;;;36.00;15.70;;;;;;;;;;4873273;29;20221;-85
2021/12/28 09:17:50;;;;;;;29.00;13.97;;;;;;;;;;4870543;29;20195;-88
2021/12/28 09:20:20;;;;;;;22.73;10.17;;;-4.10;99.90;;;;;;4875682;29;20246;-87
2021/12/28 09:22:47;;;;;;;36.17;13.07;;;;;;;;;;4873761;29;20191;-88
2021/12/28 09:25:15;;;;;;;32.97;14.37;;;-4.00;99.90;;;;;;4874714;29;20198;-87
2021/12/28 09:27:41;;;;;;;32.03;13.73;;;;;;;;;;4867336;29;20203;-89
2021/12/28 09:30:08;;;;;;;27.93;12.20;;;-4.10;99.90;;;;;;4873227;29;20236;-89
2021/12/28 09:32:34;;;;;;;22.93;10.33;;;;;;;;;;4862123;29;20222;-87
2021/12/28 09:35:00;;;;;;;34.17;14.33;;;;;;;;;;4857132;29;20201;-86
2021/12/28 09:37:26;;;;;;;25.47;12.50;;;;;;;;;;4867154;29;20194;-85
2021/12/28 09:39:52;;;;;;;22.60;10.03;;;;;;;;;;4871755;29;20668;-86
2021/12/28 09:42:18;;;;;;;36.97;12.20;;;-3.90;99.90;;;;;;4878029;29;20198;-86
2021/12/28 09:44:49;;;;;;;28.80;12.33;;;;;;;;;;4861700;29;20201;-86
2021/12/28 09:47:17;;;;;;;21.80;11.53;;;-3.90;99.90;;;;;;4874469;29;20229;-86
2021/12/28 09:49:43;;;;;;;32.23;11.87;;;-3.00;99.90;;;;;;4874500;29;20392;-84
2021/12/28 09:52:09;;;;;;;30.40;12.87;;;;;;;;;;4875633;29;20203;-84
2021/12/28 09:54:36;;;;;;;26.40;12.83;;;;;;;;;;4877461;29;20198;-84
2021/12/28 09:57:02;;;;;;;26.47;12.27;;;;;;;;;;4873895;29;20279;-85
2021/12/28 09:59:29;;;;;;;30.03;12.53;;;;;;;;;;4871391;29;20276;-83
2021/12/28 10:01:56;;;;;;;23.10;10.80;;;;;;;;;;4863547;29;20256;-84
2021/12/28 10:04:22;;;;;;;25.40;12.27;;;;;;;;;;4875258;29;20277;-84
2021/12/28 10:06:48;;;;;;;23.37;10.77;;;;;;;;;;4873224;29;20196;-85
2021/12/28 10:09:16;;;;;;;23.70;10.70;;;;;;;;;;4866916;29;20216;-87
2021/12/28 10:11:44;;;;;;;16.03;9.03;;;;;;;;;;4870497;29;20200;-85
2021/12/28 10:14:12;;;;;;;28.93;11.80;;;;;;;;;;4874738;29;20632;-85
2021/12/28 10:17:04;;;;;;;24.40;10.97;;;;;;;;;;4870272;29;20196;-85
2021/12/28 10:19:30;;;;;;;22.53;11.70;;;;;;;;;;4872198;29;20228;-84
2021/12/28 10:21:57;;;;;;;35.33;16.10;;;;;;;;;;4873444;29;20196;-87
2021/12/28 10:24:34;;;;;;;22.90;11.10;;;;;;;;;;4869903;29;20187;-86
2021/12/28 10:27:13;;;;;;;35.17;13.20;;;;;;;;;;4870134;29;20550;-86
2021/12/28 10:29:39;;;;;;;35.70;17.73;;;;;;;;;;4864442;29;20257;-84
2021/12/28 10:32:28;;;;;;;34.23;13.73;;;-3.50;99.90;;;;;;4873471;29;20210;-86
2021/12/28 10:34:59;;;;;;;21.17;11.00;;;;;;;;;;4873147;29;20251;-86
2021/12/28 10:37:31;;;;;;;35.73;14.10;;;;;;;;;;4869854;29;20215;-85
2021/12/28 10:39:58;;;;;;;28.83;13.00;;;;;;;;;;4870989;29;20190;-87
2021/12/28 10:42:40;;;;;;;17.83;9.23;;;;;;;;;;4872851;29;20269;-87
2021/12/28 10:45:07;;;;;;;20.00;9.83;;;;;;;;;;4869339;29;20205;-90
2021/12/28 10:47:33;;;;;;;22.83;10.23;;;;;;;;;;4868030;29;20199;-87
2021/12/28 10:50:07;;;;;;;24.90;11.50;;;;;;;;;;4869320;29;20584;-86
2021/12/28 10:52:38;;;;;;;24.70;12.50;;;;;;;;;;4876943;29;20655;-88
2021/12/28 10:55:25;;;;;;;27.40;12.33;;;-3.40;99.90;;;;;;4872518;29;20278;-87
2021/12/28 10:57:51;;;;;;;22.33;10.43;;;-3.50;99.90;;;;;;4871255;29;20193;-85
2021/12/28 11:00:43;;;;;;;34.80;14.23;;;-3.30;99.90;;;;;;4867351;29;20235;-84
2021/12/28 11:03:15;;;;;;;29.53;13.60;;;;;;;;;;4873800;29;20206;-82
2021/12/28 11:05:41;;;;;;;25.57;12.27;;;;;;;;;;4878642;29;20235;-86
2021/12/28 11:08:08;;;;;;;36.50;14.40;;;;;;;;;;4871974;29;20232;-86
2021/12/28 11:10:34;;;;;;;34.33;15.47;;;-3.30;99.90;;;;;;4870646;29;20261;-87
2021/12/28 11:13:00;;;;;;;36.33;14.37;;;;;;;;;;4873539;29;20258;-87
2021/12/28 11:15:26;;;;;;;28.70;12.37;;;;;;;;;;4876465;29;20194;-88
2021/12/28 11:17:53;;;;;;;39.43;15.53;;;;;;;;;;4874266;29;20246;-86
2021/12/28 11:20:31;;;;;;;21.40;10.63;;;;;;;;;;4871584;29;20202;-86
2021/12/28 11:23:11;;;;;;;20.47;9.00;;;;;;;;;;4871227;29;20189;-86
2021/12/28 11:25:37;;;;;;;24.60;11.53;;;;;;;;;;4870647;29;20222;-87
2021/12/28 11:28:19;;;;;;;22.93;9.13;;;-3.10;99.90;;;;;;4867107;29;20204;-87
2021/12/28 11:31:03;;;;;;;22.50;9.57;;;;;;;;;;4871572;29;20211;-86
2021/12/28 11:33:55;;;;;;;28.13;12.63;;;;;;;;;;4867521;29;20268;-86
2021/12/28 11:36:29;;;;;;;25.20;10.70;;;;;;;;;;4868364;29;20412;-88
2021/12/28 11:38:55;;;;;;;26.97;11.10;;;;;;;;;;4872297;29;20183;-87
2021/12/28 11:41:22;;;;;;;27.90;12.97;;;;;;;;;;4875294;29;20297;-86
2021/12/28 11:43:48;;;;;;;36.50;18.57;;;;;;;;;;4872215;29;20235;-88
2021/12/28 11:46:15;;;;;;;25.93;10.50;;;;;;;;;;4867426;29;20678;-87
2021/12/28 11:48:42;;;;;;;29.07;12.00;;;;;;;;;;4873359;29;20559;-84
2021/12/28 11:51:08;;;;;;;26.77;12.50;;;;;;;;;;4873256;29;20247;-88
2021/12/28 11:53:35;;;;;;;26.00;11.27;;;;;;;;;;4874430;29;20670;-89
2021/12/28 11:56:01;;;;;;;43.80;17.50;;;;;;;;;;4875929;29;20202;-87
2021/12/28 11:58:46;;;;;;;26.47;12.03;;;;;;;;;;4878805;29;20193;-88
2021/12/28 12:01:32;;;;;;;30.03;13.23;;;;;;;;;;4871428;29;20324;-88
2021/12/28 12:03:58;;;;;;;19.60;10.90;;;;;;;;;;4877144;29;20191;-88
2021/12/28 12:06:44;;;;;;;21.97;11.00;;;;;;;;;;4863897;29;20301;-88
2021/12/28 12:09:11;;;;;;;22.03;9.83;;;;;;;;;;4874166;29;20194;-88
2021/12/28 12:12:10;;;;;;;24.67;10.27;;;-3.10;99.90;;;;;;4865795;29;20198;-87
2021/12/28 12:15:02;;;;;;;23.40;10.63;;;-3.10;99.90;;;;;;4868749;29;20184;-87
2021/12/28 12:17:39;;;;;;;20.50;12.23;;;-3.30;99.90;;;;;;4868776;29;20219;-87
2021/12/28 12:20:05;;;;;;;30.37;12.03;;;;;;;;;;4862620;29;20554;-88
2021/12/28 12:22:31;;;;;;;33.97;14.20;;;;;;;;;;4868153;29;20279;-88
2021/12/28 12:25:01;;;;;;;41.77;17.27;;;-3.20;99.90;;;;;;4864327;29;20587;-87
2021/12/28 12:27:46;;;;;;;30.07;12.83;;;;;;;;;;4877551;29;20189;-86
2021/12/28 12:30:18;;;;;;;58.47;21.83;;;;;;;;;;4865731;29;20225;-88
2021/12/28 12:33:02;;;;;;;34.63;13.43;;;;;;;;;;4871077;29;20192;-89
2021/12/28 12:35:36;;;;;;;54.13;19.87;;;;;;;;;;4868334;29;20195;-87
2021/12/28 12:38:14;;;;;;;44.13;17.57;;;;;;;;;;4872423;29;20183;-87
2021/12/28 12:40:49;;;;;;;63.57;22.93;;;;;;;;;;4874067;29;20707;-87
2021/12/28 12:43:15;;;;;;;185.90;52.93;;;;;;;;;;4863282;29;20254;-86
2021/12/28 12:45:51;;;;;;;153.27;42.17;;;;;;;;;;4870265;29;20326;-86
2021/12/28 12:48:35;;;;;;;74.47;22.43;;;;;;;;;;4868843;29;20664;-88
2021/12/28 12:51:23;;;;;;;23.13;8.60;;;;;;;;;;4874105;29;20263;-85
2021/12/28 12:54:00;;;;;;;63.73;20.77;;;;;;;;;;4876389;29;20602;-88
2021/12/28 12:56:27;;;;;;;34.67;14.83;;;-3.10;99.90;;;;;;4876627;29;20189;-85
2021/12/28 12:58:55;;;;;;;29.60;12.47;;;;;;;;;;4877884;29;20687;-84
2021/12/28 13:01:27;;;;;;;153.23;37.57;;;;;;;;;;4877068;29;20252;-85
2021/12/28 13:03:53;;;;;;;215.47;50.13;;;;;;;;;;4878210;29;20286;-86
2021/12/28 13:06:38;;;;;;;141.63;38.17;;;;;;;;;;4879379;29;20275;-87
2021/12/28 13:09:08;;;;;;;109.43;30.00;;;;;;;;;;4880155;29;20193;-87
2021/12/28 13:11:36;;;;;;;68.87;21.70;;;;;;;;;;4885903;29;20205;-86
2021/12/28 13:14:03;;;;;;;29.50;11.77;;;-3.10;99.90;;;;;;4880484;29;20273;-87
2021/12/28 13:16:29;;;;;;;44.27;16.67;;;;;;;;;;4881175;29;20188;-86
2021/12/28 13:19:07;;;;;;;33.43;14.30;;;;;;;;;;4878756;29;20197;-86
2021/12/28 13:21:33;;;;;;;37.13;14.80;;;;;;;;;;4866393;29;20189;-88
2021/12/28 13:24:05;;;;;;;19.53;8.30;;;;;;;;;;4890243;29;20196;-88
2021/12/28 13:26:42;;;;;;;37.90;14.97;;;;;;;;;;4895975;29;20203;-88
2021/12/28 13:29:08;;;;;;;24.87;11.53;;;;;;;;;;4893292;29;20195;-88
2021/12/28 13:31:34;;;;;;;24.70;11.10;;;;;;;;;;4888173;29;20248;-86
2021/12/28 13:34:00;;;;;;;24.47;9.90;;;;;;;;;;4887629;29;20201;-88
2021/12/28 13:36:30;;;;;;;31.53;13.73;;;;;;;;;;4890847;29;20231;-89
2021/12/28 13:39:06;;;;;;;57.73;21.73;;;;;;;;;;4899338;29;20206;-87
2021/12/28 13:41:33;;;;;;;43.60;15.40;;;;;;;;;;4891901;29;20203;-85
2021/12/28 13:44:03;;;;;;;24.60;10.03;;;;;;;;;;4891098;29;20192;-85
2021/12/28 13:46:29;;;;;;;43.67;18.53;;;;;;;;;;4887296;29;20188;-87
2021/12/28 13:48:55;;;;;;;81.83;24.80;;;;;;;;;;4891987;29;20178;-87
2021/12/28 13:51:22;;;;;;;22.77;11.03;;;;;;;;;;4886338;29;20245;-90
2021/12/28 13:53:49;;;;;;;29.60;11.07;;;;;;;;;;4900360;29;20183;-90
2021/12/28 13:56:18;;;;;;;25.73;10.10;;;;;;;;;;4900121;29;20206;-88